To NAV CANADA Home Page Login to a new session Search on AWWS site Feedback and Comments Disclaimer Vers la page française équivalente Tips FAQ What's new on the site To the Forecasts and Observations / NOTAM section To "File a Flight Plan" website Publications and other links Update of the User's profile FIC Telephone Numbers My Weather Data Folder Route Weather Data Regional Weather Data Local Weather Data To the Forecasts and Observations / NOTAM section
Request Generated 12/10/2016 at 16:32:49 UTC . Weather information available at that time is displayed.

METAR/TAF

ST. JOHN'S/ST. JOHN'S INTL/NL    

METAR CYYT 101600Z 27020G27KT 15SM SCT025 M02/M08 A2954 RMK SC3
SLP011=
SPECI CYYT 101529Z 28021KT 15SM SCT025 M02/M08 A2953 RMK SC4 SLP010=
METAR CYYT 101500Z 27019G24KT 15SM BKN023 M02/M07 A2953 RMK SC6
SLP009=
METAR CYYT 101400Z 27022G27KT 15SM BKN021 M02/M07 A2953 RMK SC5
SLP007=

TAF CYYT 101138Z 1012/1112 29020G30KT P6SM SCT020 TEMPO 1012/1018
BKN020
BECMG 1102/1104 28015G25KT
RMK NXT FCST BY 101800Z=
Your time UTC time
Weather data provided by Environment Canada and NAV CANADA